sensor_id;sensor_type;location;lat;lon;timestamp;P1;durP1;ratioP1;P2;durP2;ratioP2
83632;SDS011;73595;53.084;6.696;2024-01-06T00:02:00;24.75;;;16.85;;
83632;SDS011;73595;53.084;6.696;2024-01-06T00:04:26;21.65;;;15.95;;
83632;SDS011;73595;53.084;6.696;2024-01-06T00:06:53;23.02;;;16.20;;
83632;SDS011;73595;53.084;6.696;2024-01-06T00:09:19;19.95;;;14.68;;
83632;SDS011;73595;53.084;6.696;2024-01-06T00:11:44;19.85;;;14.95;;
83632;SDS011;73595;53.084;6.696;2024-01-06T00:14:11;19.08;;;14.07;;
83632;SDS011;73595;53.084;6.696;2024-01-06T00:16:37;25.92;;;16.70;;
83632;SDS011;73595;53.084;6.696;2024-01-06T00:19:03;21.65;;;14.98;;
83632;SDS011;73595;53.084;6.696;2024-01-06T00:21:28;24.08;;;15.88;;
83632;SDS011;73595;53.084;6.696;2024-01-06T00:23:55;19.88;;;14.77;;
83632;SDS011;73595;53.084;6.696;2024-01-06T00:26:21;21.13;;;14.65;;
83632;SDS011;73595;53.084;6.696;2024-01-06T00:28:46;20.65;;;14.88;;
83632;SDS011;73595;53.084;6.696;2024-01-06T00:31:14;17.63;;;13.50;;
83632;SDS011;73595;53.084;6.696;2024-01-06T00:33:42;17.52;;;12.90;;
83632;SDS011;73595;53.084;6.696;2024-01-06T00:36:08;17.13;;;12.18;;
83632;SDS011;73595;53.084;6.696;2024-01-06T00:38:35;15.98;;;12.13;;
83632;SDS011;73595;53.084;6.696;2024-01-06T00:41:01;17.52;;;12.57;;
83632;SDS011;73595;53.084;6.696;2024-01-06T00:43:29;20.23;;;12.85;;
83632;SDS011;73595;53.084;6.696;2024-01-06T00:45:55;20.33;;;14.30;;
83632;SDS011;73595;53.084;6.696;2024-01-06T00:48:20;18.35;;;13.90;;
83632;SDS011;73595;53.084;6.696;2024-01-06T00:50:46;21.55;;;15.70;;
83632;SDS011;73595;53.084;6.696;2024-01-06T00:53:12;19.40;;;14.18;;
83632;SDS011;73595;53.084;6.696;2024-01-06T00:55:39;23.02;;;15.55;;
83632;SDS011;73595;53.084;6.696;2024-01-06T00:58:04;26.30;;;16.80;;
83632;SDS011;73595;53.084;6.696;2024-01-06T01:00:32;26.55;;;17.70;;
83632;SDS011;73595;53.084;6.696;2024-01-06T01:02:58;26.80;;;18.00;;
83632;SDS011;73595;53.084;6.696;2024-01-06T01:05:24;29.08;;;18.58;;
83632;SDS011;73595;53.084;6.696;2024-01-06T01:07:49;26.42;;;17.23;;
83632;SDS011;73595;53.084;6.696;2024-01-06T01:10:14;22.95;;;16.08;;
83632;SDS011;73595;53.084;6.696;2024-01-06T01:12:40;23.33;;;16.50;;
83632;SDS011;73595;53.084;6.696;2024-01-06T01:15:08;22.58;;;15.43;;
83632;SDS011;73595;53.084;6.696;2024-01-06T01:17:33;22.05;;;16.13;;
83632;SDS011;73595;53.084;6.696;2024-01-06T01:19:59;22.27;;;14.80;;
83632;SDS011;73595;53.084;6.696;2024-01-06T01:22:24;21.90;;;15.38;;
83632;SDS011;73595;53.084;6.696;2024-01-06T01:24:50;22.45;;;15.80;;
83632;SDS011;73595;53.084;6.696;2024-01-06T01:27:15;25.48;;;16.92;;
83632;SDS011;73595;53.084;6.696;2024-01-06T01:29:40;21.45;;;15.43;;
83632;SDS011;73595;53.084;6.696;2024-01-06T01:32:06;24.80;;;15.70;;
83632;SDS011;73595;53.084;6.696;2024-01-06T01:34:31;21.27;;;14.82;;
83632;SDS011;73595;53.084;6.696;2024-01-06T01:36:56;19.10;;;13.68;;
83632;SDS011;73595;53.084;6.696;2024-01-06T01:39:22;24.33;;;15.82;;
83632;SDS011;73595;53.084;6.696;2024-01-06T01:41:47;23.80;;;14.68;;
83632;SDS011;73595;53.084;6.696;2024-01-06T01:44:12;23.80;;;15.43;;
83632;SDS011;73595;53.084;6.696;2024-01-06T01:46:38;17.70;;;13.02;;
83632;SDS011;73595;53.084;6.696;2024-01-06T01:49:04;18.08;;;12.20;;
83632;SDS011;73595;53.084;6.696;2024-01-06T01:51:33;20.75;;;12.07;;
83632;SDS011;73595;53.084;6.696;2024-01-06T01:54:01;18.15;;;12.20;;
83632;SDS011;73595;53.084;6.696;2024-01-06T01:56:27;16.90;;;11.52;;
83632;SDS011;73595;53.084;6.696;2024-01-06T01:58:58;22.33;;;13.15;;
83632;SDS011;73595;53.084;6.696;2024-01-06T02:01:26;18.80;;;11.60;;
83632;SDS011;73595;53.084;6.696;2024-01-06T02:03:52;19.92;;;13.57;;
83632;SDS011;73595;53.084;6.696;2024-01-06T02:06:17;21.73;;;13.40;;
83632;SDS011;73595;53.084;6.696;2024-01-06T02:08:43;20.15;;;13.55;;
83632;SDS011;73595;53.084;6.696;2024-01-06T02:11:08;18.95;;;12.40;;
83632;SDS011;73595;53.084;6.696;2024-01-06T02:13:35;18.75;;;12.95;;
83632;SDS011;73595;53.084;6.696;2024-01-06T02:16:02;23.50;;;13.93;;
83632;SDS011;73595;53.084;6.696;2024-01-06T02:18:30;25.65;;;14.30;;
83632;SDS011;73595;53.084;6.696;2024-01-06T02:20:57;21.35;;;14.25;;
83632;SDS011;73595;53.084;6.696;2024-01-06T02:23:25;22.73;;;13.63;;
83632;SDS011;73595;53.084;6.696;2024-01-06T02:25:51;22.25;;;14.30;;
83632;SDS011;73595;53.084;6.696;2024-01-06T02:28:16;22.80;;;13.40;;
83632;SDS011;73595;53.084;6.696;2024-01-06T02:30:43;25.40;;;14.93;;
83632;SDS011;73595;53.084;6.696;2024-01-06T02:33:08;23.38;;;14.23;;
83632;SDS011;73595;53.084;6.696;2024-01-06T02:35:33;21.38;;;14.15;;
83632;SDS011;73595;53.084;6.696;2024-01-06T02:37:59;27.67;;;15.48;;
83632;SDS011;73595;53.084;6.696;2024-01-06T02:40:26;26.70;;;15.68;;
83632;SDS011;73595;53.084;6.696;2024-01-06T02:42:52;22.45;;;14.43;;
83632;SDS011;73595;53.084;6.696;2024-01-06T02:45:18;24.23;;;14.60;;
83632;SDS011;73595;53.084;6.696;2024-01-06T02:47:43;25.35;;;14.95;;
83632;SDS011;73595;53.084;6.696;2024-01-06T02:50:10;24.05;;;15.18;;
83632;SDS011;73595;53.084;6.696;2024-01-06T02:52:35;23.73;;;14.15;;
83632;SDS011;73595;53.084;6.696;2024-01-06T02:55:01;21.33;;;14.70;;
83632;SDS011;73595;53.084;6.696;2024-01-06T02:57:29;25.17;;;14.50;;
83632;SDS011;73595;53.084;6.696;2024-01-06T02:59:55;24.25;;;13.05;;
83632;SDS011;73595;53.084;6.696;2024-01-06T03:02:21;21.45;;;13.38;;
83632;SDS011;73595;53.084;6.696;2024-01-06T03:04:46;18.40;;;11.65;;
83632;SDS011;73595;53.084;6.696;2024-01-06T03:07:11;18.52;;;12.43;;
83632;SDS011;73595;53.084;6.696;2024-01-06T03:09:37;20.30;;;12.18;;
83632;SDS011;73595;53.084;6.696;2024-01-06T03:12:05;19.70;;;12.32;;
83632;SDS011;73595;53.084;6.696;2024-01-06T03:14:34;19.92;;;13.10;;
83632;SDS011;73595;53.084;6.696;2024-01-06T03:17:00;21.17;;;13.50;;
83632;SDS011;73595;53.084;6.696;2024-01-06T03:19:25;20.70;;;14.32;;
83632;SDS011;73595;53.084;6.696;2024-01-06T03:21:52;21.60;;;13.25;;
83632;SDS011;73595;53.084;6.696;2024-01-06T03:24:17;23.90;;;12.95;;
83632;SDS011;73595;53.084;6.696;2024-01-06T03:26:48;24.98;;;14.18;;
83632;SDS011;73595;53.084;6.696;2024-01-06T03:29:14;26.23;;;14.70;;
83632;SDS011;73595;53.084;6.696;2024-01-06T03:31:46;21.50;;;13.90;;
83632;SDS011;73595;53.084;6.696;2024-01-06T03:34:12;21.55;;;13.20;;
83632;SDS011;73595;53.084;6.696;2024-01-06T03:36:38;24.65;;;14.15;;
83632;SDS011;73595;53.084;6.696;2024-01-06T03:39:06;20.35;;;12.43;;
83632;SDS011;73595;53.084;6.696;2024-01-06T03:41:32;18.85;;;11.95;;
83632;SDS011;73595;53.084;6.696;2024-01-06T03:43:59;19.20;;;12.43;;
83632;SDS011;73595;53.084;6.696;2024-01-06T03:46:25;18.45;;;11.88;;
83632;SDS011;73595;53.084;6.696;2024-01-06T03:48:51;22.48;;;11.75;;
83632;SDS011;73595;53.084;6.696;2024-01-06T03:51:21;19.13;;;12.02;;
83632;SDS011;73595;53.084;6.696;2024-01-06T03:53:47;22.10;;;12.60;;
83632;SDS011;73595;53.084;6.696;2024-01-06T03:56:13;17.05;;;11.40;;
83632;SDS011;73595;53.084;6.696;2024-01-06T03:58:39;19.17;;;12.23;;
83632;SDS011;73595;53.084;6.696;2024-01-06T04:01:05;17.45;;;11.55;;
83632;SDS011;73595;53.084;6.696;2024-01-06T04:03:31;21.33;;;12.05;;
83632;SDS011;73595;53.084;6.696;2024-01-06T04:05:57;19.42;;;11.57;;
83632;SDS011;73595;53.084;6.696;2024-01-06T04:08:22;19.10;;;11.68;;
83632;SDS011;73595;53.084;6.696;2024-01-06T04:10:48;19.48;;;11.82;;
83632;SDS011;73595;53.084;6.696;2024-01-06T04:13:14;21.75;;;12.60;;
83632;SDS011;73595;53.084;6.696;2024-01-06T04:15:42;21.17;;;12.43;;
83632;SDS011;73595;53.084;6.696;2024-01-06T04:18:07;17.40;;;10.98;;
83632;SDS011;73595;53.084;6.696;2024-01-06T04:20:34;16.85;;;10.80;;
83632;SDS011;73595;53.084;6.696;2024-01-06T04:22:59;21.77;;;10.82;;
83632;SDS011;73595;53.084;6.696;2024-01-06T04:25:25;17.83;;;10.68;;
83632;SDS011;73595;53.084;6.696;2024-01-06T04:27:52;20.52;;;11.35;;
83632;SDS011;73595;53.084;6.696;2024-01-06T04:30:18;20.75;;;11.25;;
83632;SDS011;73595;53.084;6.696;2024-01-06T04:32:45;18.08;;;10.07;;
83632;SDS011;73595;53.084;6.696;2024-01-06T04:35:15;18.23;;;11.38;;
83632;SDS011;73595;53.084;6.696;2024-01-06T04:37:40;15.38;;;10.10;;
83632;SDS011;73595;53.084;6.696;2024-01-06T04:40:06;16.40;;;10.63;;
83632;SDS011;73595;53.084;6.696;2024-01-06T04:42:32;20.35;;;10.35;;
83632;SDS011;73595;53.084;6.696;2024-01-06T04:44:58;15.48;;;10.25;;
83632;SDS011;73595;53.084;6.696;2024-01-06T04:47:23;15.55;;;10.32;;
83632;SDS011;73595;53.084;6.696;2024-01-06T04:49:49;15.52;;;10.38;;
83632;SDS011;73595;53.084;6.696;2024-01-06T04:52:16;14.10;;;9.68;;
83632;SDS011;73595;53.084;6.696;2024-01-06T04:54:41;16.63;;;10.00;;
83632;SDS011;73595;53.084;6.696;2024-01-06T04:57:07;16.33;;;9.70;;
83632;SDS011;73595;53.084;6.696;2024-01-06T04:59:34;15.73;;;10.80;;
83632;SDS011;73595;53.084;6.696;2024-01-06T05:01:59;14.10;;;9.38;;
83632;SDS011;73595;53.084;6.696;2024-01-06T05:04:25;18.90;;;11.30;;
83632;SDS011;73595;53.084;6.696;2024-01-06T05:06:53;17.52;;;10.73;;
83632;SDS011;73595;53.084;6.696;2024-01-06T05:09:19;16.55;;;10.63;;
83632;SDS011;73595;53.084;6.696;2024-01-06T05:11:45;16.42;;;10.27;;
83632;SDS011;73595;53.084;6.696;2024-01-06T05:14:11;15.27;;;10.25;;
83632;SDS011;73595;53.084;6.696;2024-01-06T05:16:37;20.58;;;11.23;;
83632;SDS011;73595;53.084;6.696;2024-01-06T05:19:03;18.80;;;11.35;;
83632;SDS011;73595;53.084;6.696;2024-01-06T05:21:29;15.90;;;9.85;;
83632;SDS011;73595;53.084;6.696;2024-01-06T05:23:56;14.75;;;9.68;;
83632;SDS011;73595;53.084;6.696;2024-01-06T05:26:22;17.65;;;9.10;;
83632;SDS011;73595;53.084;6.696;2024-01-06T05:28:47;16.05;;;9.13;;
83632;SDS011;73595;53.084;6.696;2024-01-06T05:31:13;16.63;;;10.57;;
83632;SDS011;73595;53.084;6.696;2024-01-06T05:33:38;18.55;;;11.45;;
83632;SDS011;73595;53.084;6.696;2024-01-06T05:36:04;15.75;;;10.20;;
83632;SDS011;73595;53.084;6.696;2024-01-06T05:38:31;16.35;;;10.30;;
83632;SDS011;73595;53.084;6.696;2024-01-06T05:40:56;14.25;;;9.82;;
83632;SDS011;73595;53.084;6.696;2024-01-06T05:43:23;12.90;;;9.00;;
83632;SDS011;73595;53.084;6.696;2024-01-06T05:45:48;16.30;;;9.73;;
83632;SDS011;73595;53.084;6.696;2024-01-06T05:48:14;15.90;;;11.05;;
83632;SDS011;73595;53.084;6.696;2024-01-06T05:50:41;16.90;;;10.63;;
83632;SDS011;73595;53.084;6.696;2024-01-06T05:53:06;16.65;;;10.68;;
83632;SDS011;73595;53.084;6.696;2024-01-06T05:55:32;17.15;;;11.57;;
83632;SDS011;73595;53.084;6.696;2024-01-06T05:57:58;17.05;;;10.75;;
83632;SDS011;73595;53.084;6.696;2024-01-06T06:00:23;17.45;;;10.45;;
83632;SDS011;73595;53.084;6.696;2024-01-06T06:02:48;15.52;;;10.45;;
83632;SDS011;73595;53.084;6.696;2024-01-06T06:05:14;16.65;;;11.00;;
83632;SDS011;73595;53.084;6.696;2024-01-06T06:07:39;17.17;;;10.82;;
83632;SDS011;73595;53.084;6.696;2024-01-06T06:10:08;18.85;;;10.43;;
83632;SDS011;73595;53.084;6.696;2024-01-06T06:12:35;17.27;;;10.25;;
83632;SDS011;73595;53.084;6.696;2024-01-06T06:15:01;14.98;;;11.05;;
83632;SDS011;73595;53.084;6.696;2024-01-06T06:17:29;19.77;;;11.52;;
83632;SDS011;73595;53.084;6.696;2024-01-06T06:19:56;16.70;;;10.88;;
83632;SDS011;73595;53.084;6.696;2024-01-06T06:22:24;16.83;;;11.65;;
83632;SDS011;73595;53.084;6.696;2024-01-06T06:24:58;15.85;;;9.70;;
83632;SDS011;73595;53.084;6.696;2024-01-06T06:27:25;14.63;;;10.50;;
83632;SDS011;73595;53.084;6.696;2024-01-06T06:29:52;17.05;;;10.18;;
83632;SDS011;73595;53.084;6.696;2024-01-06T06:32:18;16.20;;;9.88;;
83632;SDS011;73595;53.084;6.696;2024-01-06T06:34:43;13.85;;;9.65;;
83632;SDS011;73595;53.084;6.696;2024-01-06T06:37:09;14.40;;;10.00;;
83632;SDS011;73595;53.084;6.696;2024-01-06T06:39:34;14.13;;;9.32;;
83632;SDS011;73595;53.084;6.696;2024-01-06T06:42:01;15.48;;;10.25;;
83632;SDS011;73595;53.084;6.696;2024-01-06T06:44:27;17.00;;;10.07;;
83632;SDS011;73595;53.084;6.696;2024-01-06T06:46:56;15.10;;;10.57;;
83632;SDS011;73595;53.084;6.696;2024-01-06T06:49:23;14.73;;;9.68;;
83632;SDS011;73595;53.084;6.696;2024-01-06T06:51:50;16.33;;;9.93;;
83632;SDS011;73595;53.084;6.696;2024-01-06T06:54:17;16.73;;;9.98;;
83632;SDS011;73595;53.084;6.696;2024-01-06T06:56:42;14.07;;;9.27;;
83632;SDS011;73595;53.084;6.696;2024-01-06T06:59:08;15.00;;;9.43;;
83632;SDS011;73595;53.084;6.696;2024-01-06T07:01:34;13.30;;;8.80;;
83632;SDS011;73595;53.084;6.696;2024-01-06T07:04:00;15.52;;;8.77;;
83632;SDS011;73595;53.084;6.696;2024-01-06T07:06:27;13.07;;;9.32;;
83632;SDS011;73595;53.084;6.696;2024-01-06T07:08:53;16.33;;;9.63;;
83632;SDS011;73595;53.084;6.696;2024-01-06T07:11:19;14.23;;;9.48;;
83632;SDS011;73595;53.084;6.696;2024-01-06T07:13:44;16.30;;;10.10;;
83632;SDS011;73595;53.084;6.696;2024-01-06T07:16:10;15.05;;;9.90;;
83632;SDS011;73595;53.084;6.696;2024-01-06T07:18:36;14.07;;;9.50;;
83632;SDS011;73595;53.084;6.696;2024-01-06T07:21:03;16.08;;;9.95;;
83632;SDS011;73595;53.084;6.696;2024-01-06T07:23:31;14.13;;;9.73;;
83632;SDS011;73595;53.084;6.696;2024-01-06T07:25:56;16.27;;;10.65;;
83632;SDS011;73595;53.084;6.696;2024-01-06T07:28:23;18.90;;;10.10;;
83632;SDS011;73595;53.084;6.696;2024-01-06T07:30:48;18.15;;;10.30;;
83632;SDS011;73595;53.084;6.696;2024-01-06T07:33:13;14.10;;;9.63;;
83632;SDS011;73595;53.084;6.696;2024-01-06T07:35:39;17.50;;;10.18;;
83632;SDS011;73595;53.084;6.696;2024-01-06T07:38:08;14.18;;;9.88;;
83632;SDS011;73595;53.084;6.696;2024-01-06T07:40:37;15.60;;;10.38;;
83632;SDS011;73595;53.084;6.696;2024-01-06T07:43:04;14.68;;;10.40;;
83632;SDS011;73595;53.084;6.696;2024-01-06T07:45:30;16.00;;;10.45;;
83632;SDS011;73595;53.084;6.696;2024-01-06T07:48:00;15.75;;;9.70;;
83632;SDS011;73595;53.084;6.696;2024-01-06T07:50:26;13.57;;;9.68;;
83632;SDS011;73595;53.084;6.696;2024-01-06T07:52:52;16.15;;;10.48;;
83632;SDS011;73595;53.084;6.696;2024-01-06T07:55:20;14.68;;;9.80;;
83632;SDS011;73595;53.084;6.696;2024-01-06T07:57:46;13.02;;;9.52;;
83632;SDS011;73595;53.084;6.696;2024-01-06T08:00:24;15.00;;;9.55;;
83632;SDS011;73595;53.084;6.696;2024-01-06T08:02:50;15.73;;;10.68;;
83632;SDS011;73595;53.084;6.696;2024-01-06T08:05:18;15.23;;;9.95;;
83632;SDS011;73595;53.084;6.696;2024-01-06T08:07:48;17.15;;;10.10;;
83632;SDS011;73595;53.084;6.696;2024-01-06T08:13:17;16.95;;;10.60;;
83632;SDS011;73595;53.084;6.696;2024-01-06T08:15:43;14.98;;;10.02;;
83632;SDS011;73595;53.084;6.696;2024-01-06T08:18:09;18.65;;;10.13;;
83632;SDS011;73595;53.084;6.696;2024-01-06T08:20:46;18.70;;;11.23;;
83632;SDS011;73595;53.084;6.696;2024-01-06T08:23:11;16.38;;;10.55;;
83632;SDS011;73595;53.084;6.696;2024-01-06T08:25:37;15.55;;;10.50;;
83632;SDS011;73595;53.084;6.696;2024-01-06T08:28:03;14.65;;;10.35;;
83632;SDS011;73595;53.084;6.696;2024-01-06T08:30:33;15.43;;;10.38;;
83632;SDS011;73595;53.084;6.696;2024-01-06T08:33:00;14.32;;;10.10;;
83632;SDS011;73595;53.084;6.696;2024-01-06T08:35:47;13.45;;;9.80;;
83632;SDS011;73595;53.084;6.696;2024-01-06T08:38:14;14.60;;;10.40;;
83632;SDS011;73595;53.084;6.696;2024-01-06T08:41:00;15.52;;;10.48;;
83632;SDS011;73595;53.084;6.696;2024-01-06T08:43:27;17.83;;;11.65;;
83632;SDS011;73595;53.084;6.696;2024-01-06T08:48:45;16.80;;;9.60;;
83632;SDS011;73595;53.084;6.696;2024-01-06T08:51:14;16.73;;;10.45;;
83632;SDS011;73595;53.084;6.696;2024-01-06T08:53:41;15.75;;;10.43;;
83632;SDS011;73595;53.084;6.696;2024-01-06T08:56:07;14.05;;;9.90;;
83632;SDS011;73595;53.084;6.696;2024-01-06T08:58:32;15.63;;;10.32;;
83632;SDS011;73595;53.084;6.696;2024-01-06T09:00:57;15.77;;;11.15;;
83632;SDS011;73595;53.084;6.696;2024-01-06T09:03:25;15.07;;;9.93;;
83632;SDS011;73595;53.084;6.696;2024-01-06T09:05:52;15.30;;;11.32;;
83632;SDS011;73595;53.084;6.696;2024-01-06T09:08:19;15.55;;;10.50;;
83632;SDS011;73595;53.084;6.696;2024-01-06T09:10:44;17.75;;;12.10;;
83632;SDS011;73595;53.084;6.696;2024-01-06T09:13:09;14.55;;;9.82;;
83632;SDS011;73595;53.084;6.696;2024-01-06T09:15:35;17.70;;;12.02;;
83632;SDS011;73595;53.084;6.696;2024-01-06T09:18:01;18.33;;;11.70;;
83632;SDS011;73595;53.084;6.696;2024-01-06T09:20:27;18.23;;;11.45;;
83632;SDS011;73595;53.084;6.696;2024-01-06T09:22:53;17.27;;;10.85;;
83632;SDS011;73595;53.084;6.696;2024-01-06T09:25:18;18.20;;;11.90;;
83632;SDS011;73595;53.084;6.696;2024-01-06T09:27:44;15.25;;;11.18;;
83632;SDS011;73595;53.084;6.696;2024-01-06T09:30:09;18.10;;;11.68;;
83632;SDS011;73595;53.084;6.696;2024-01-06T09:32:38;15.68;;;11.88;;
83632;SDS011;73595;53.084;6.696;2024-01-06T09:35:03;18.70;;;12.27;;
83632;SDS011;73595;53.084;6.696;2024-01-06T09:37:29;20.95;;;11.85;;
83632;SDS011;73595;53.084;6.696;2024-01-06T09:39:54;18.20;;;11.25;;
83632;SDS011;73595;53.084;6.696;2024-01-06T09:42:20;18.80;;;12.13;;
83632;SDS011;73595;53.084;6.696;2024-01-06T09:44:45;14.85;;;11.15;;
83632;SDS011;73595;53.084;6.696;2024-01-06T09:47:11;17.92;;;11.32;;
83632;SDS011;73595;53.084;6.696;2024-01-06T09:49:38;16.85;;;11.82;;
83632;SDS011;73595;53.084;6.696;2024-01-06T09:52:08;18.02;;;12.63;;
83632;SDS011;73595;53.084;6.696;2024-01-06T09:54:41;16.50;;;11.60;;
83632;SDS011;73595;53.084;6.696;2024-01-06T09:57:17;15.57;;;11.27;;
83632;SDS011;73595;53.084;6.696;2024-01-06T09:59:44;27.30;;;11.55;;
83632;SDS011;73595;53.084;6.696;2024-01-06T10:02:09;21.33;;;11.98;;
83632;SDS011;73595;53.084;6.696;2024-01-06T10:04:39;17.33;;;11.10;;
83632;SDS011;73595;53.084;6.696;2024-01-06T10:07:05;19.38;;;11.65;;
83632;SDS011;73595;53.084;6.696;2024-01-06T10:09:31;18.60;;;11.35;;
83632;SDS011;73595;53.084;6.696;2024-01-06T10:11:57;17.13;;;11.18;;
83632;SDS011;73595;53.084;6.696;2024-01-06T10:14:24;19.00;;;11.23;;
83632;SDS011;73595;53.084;6.696;2024-01-06T10:16:51;18.58;;;11.95;;
83632;SDS011;73595;53.084;6.696;2024-01-06T10:19:18;20.15;;;11.82;;
83632;SDS011;73595;53.084;6.696;2024-01-06T10:21:44;16.40;;;11.35;;
83632;SDS011;73595;53.084;6.696;2024-01-06T10:24:09;20.38;;;12.00;;
83632;SDS011;73595;53.084;6.696;2024-01-06T10:26:35;20.05;;;12.23;;
83632;SDS011;73595;53.084;6.696;2024-01-06T10:29:01;17.83;;;12.25;;
83632;SDS011;73595;53.084;6.696;2024-01-06T10:31:26;20.08;;;12.55;;
83632;SDS011;73595;53.084;6.696;2024-01-06T10:33:52;17.77;;;11.70;;
83632;SDS011;73595;53.084;6.696;2024-01-06T10:36:21;17.10;;;11.55;;
83632;SDS011;73595;53.084;6.696;2024-01-06T10:39:24;16.23;;;11.15;;
83632;SDS011;73595;53.084;6.696;2024-01-06T10:41:51;16.13;;;10.98;;
83632;SDS011;73595;53.084;6.696;2024-01-06T10:44:26;17.60;;;10.68;;
83632;SDS011;73595;53.084;6.696;2024-01-06T10:47:30;17.20;;;11.50;;
83632;SDS011;73595;53.084;6.696;2024-01-06T10:50:13;17.45;;;11.45;;
83632;SDS011;73595;53.084;6.696;2024-01-06T10:52:43;18.30;;;11.02;;
83632;SDS011;73595;53.084;6.696;2024-01-06T10:55:15;14.80;;;10.82;;
83632;SDS011;73595;53.084;6.696;2024-01-06T10:58:46;14.82;;;10.48;;
83632;SDS011;73595;53.084;6.696;2024-01-06T11:01:20;15.88;;;11.15;;
83632;SDS011;73595;53.084;6.696;2024-01-06T11:03:51;17.73;;;11.27;;
83632;SDS011;73595;53.084;6.696;2024-01-06T11:07:10;18.95;;;11.70;;
83632;SDS011;73595;53.084;6.696;2024-01-06T11:10:42;16.73;;;10.85;;
83632;SDS011;73595;53.084;6.696;2024-01-06T11:14:29;15.48;;;10.73;;
83632;SDS011;73595;53.084;6.696;2024-01-06T11:17:52;18.40;;;11.40;;
83632;SDS011;73595;53.084;6.696;2024-01-06T11:21:16;16.45;;;10.32;;
83632;SDS011;73595;53.084;6.696;2024-01-06T11:24:15;16.67;;;11.07;;
83632;SDS011;73595;53.084;6.696;2024-01-06T11:26:45;17.42;;;11.73;;
83632;SDS011;73595;53.084;6.696;2024-01-06T11:29:55;17.77;;;11.50;;
83632;SDS011;73595;53.084;6.696;2024-01-06T11:32:41;17.25;;;11.75;;
83632;SDS011;73595;53.084;6.696;2024-01-06T11:41:55;17.50;;;11.25;;
83632;SDS011;73595;53.084;6.696;2024-01-06T11:44:33;18.67;;;11.00;;
83632;SDS011;73595;53.084;6.696;2024-01-06T11:47:48;16.67;;;11.60;;
83632;SDS011;73595;53.084;6.696;2024-01-06T11:50:40;17.35;;;10.95;;
83632;SDS011;73595;53.084;6.696;2024-01-06T11:53:11;16.47;;;11.17;;
83632;SDS011;73595;53.084;6.696;2024-01-06T11:55:38;16.15;;;11.70;;
83632;SDS011;73595;53.084;6.696;2024-01-06T11:58:04;17.95;;;11.60;;
83632;SDS011;73595;53.084;6.696;2024-01-06T12:00:33;17.95;;;12.20;;
83632;SDS011;73595;53.084;6.696;2024-01-06T12:03:01;18.73;;;11.75;;
83632;SDS011;73595;53.084;6.696;2024-01-06T12:06:02;18.42;;;11.98;;
83632;SDS011;73595;53.084;6.696;2024-01-06T12:08:29;17.00;;;11.38;;
83632;SDS011;73595;53.084;6.696;2024-01-06T12:11:04;16.95;;;11.38;;
83632;SDS011;73595;53.084;6.696;2024-01-06T12:13:32;16.83;;;10.75;;
83632;SDS011;73595;53.084;6.696;2024-01-06T12:15:57;17.38;;;10.90;;
83632;SDS011;73595;53.084;6.696;2024-01-06T12:18:25;19.13;;;11.85;;
83632;SDS011;73595;53.084;6.696;2024-01-06T12:20:50;17.60;;;11.15;;
83632;SDS011;73595;53.084;6.696;2024-01-06T12:23:24;15.80;;;10.10;;
83632;SDS011;73595;53.084;6.696;2024-01-06T12:25:55;14.60;;;10.35;;
83632;SDS011;73595;53.084;6.696;2024-01-06T12:28:21;16.65;;;10.68;;
83632;SDS011;73595;53.084;6.696;2024-01-06T12:30:46;14.65;;;9.45;;
83632;SDS011;73595;53.084;6.696;2024-01-06T12:33:12;16.67;;;10.57;;
83632;SDS011;73595;53.084;6.696;2024-01-06T12:35:39;17.48;;;11.18;;
83632;SDS011;73595;53.084;6.696;2024-01-06T12:38:11;17.60;;;10.95;;
83632;SDS011;73595;53.084;6.696;2024-01-06T12:40:37;14.93;;;10.02;;
83632;SDS011;73595;53.084;6.696;2024-01-06T12:43:04;16.17;;;10.00;;
83632;SDS011;73595;53.084;6.696;2024-01-06T12:45:35;14.90;;;10.00;;
83632;SDS011;73595;53.084;6.696;2024-01-06T12:48:13;14.82;;;10.38;;
83632;SDS011;73595;53.084;6.696;2024-01-06T12:50:41;13.35;;;9.18;;
83632;SDS011;73595;53.084;6.696;2024-01-06T12:53:09;15.25;;;9.90;;
83632;SDS011;73595;53.084;6.696;2024-01-06T12:56:12;15.63;;;9.98;;
83632;SDS011;73595;53.084;6.696;2024-01-06T12:59:33;16.05;;;10.10;;
83632;SDS011;73595;53.084;6.696;2024-01-06T13:02:01;14.00;;;9.55;;
83632;SDS011;73595;53.084;6.696;2024-01-06T13:04:32;15.07;;;9.60;;
83632;SDS011;73595;53.084;6.696;2024-01-06T13:06:59;13.73;;;9.50;;
83632;SDS011;73595;53.084;6.696;2024-01-06T13:09:25;11.77;;;8.25;;
83632;SDS011;73595;53.084;6.696;2024-01-06T13:11:51;18.83;;;9.68;;
83632;SDS011;73595;53.084;6.696;2024-01-06T13:14:19;13.75;;;9.52;;
83632;SDS011;73595;53.084;6.696;2024-01-06T13:16:45;15.20;;;10.57;;
83632;SDS011;73595;53.084;6.696;2024-01-06T13:19:11;15.98;;;10.70;;
83632;SDS011;73595;53.084;6.696;2024-01-06T13:21:36;15.63;;;10.52;;
83632;SDS011;73595;53.084;6.696;2024-01-06T13:24:04;16.27;;;11.00;;
83632;SDS011;73595;53.084;6.696;2024-01-06T13:26:31;17.13;;;10.52;;
83632;SDS011;73595;53.084;6.696;2024-01-06T13:28:56;14.20;;;10.05;;
83632;SDS011;73595;53.084;6.696;2024-01-06T13:31:26;13.15;;;9.55;;
83632;SDS011;73595;53.084;6.696;2024-01-06T13:33:52;15.85;;;10.60;;
83632;SDS011;73595;53.084;6.696;2024-01-06T13:36:19;16.45;;;9.60;;
83632;SDS011;73595;53.084;6.696;2024-01-06T13:38:48;16.38;;;10.27;;
83632;SDS011;73595;53.084;6.696;2024-01-06T13:41:14;12.65;;;9.02;;
83632;SDS011;73595;53.084;6.696;2024-01-06T13:43:40;16.58;;;9.10;;
83632;SDS011;73595;53.084;6.696;2024-01-06T13:46:06;13.50;;;9.18;;
83632;SDS011;73595;53.084;6.696;2024-01-06T13:48:32;13.13;;;9.15;;
83632;SDS011;73595;53.084;6.696;2024-01-06T13:50:58;14.95;;;9.80;;
83632;SDS011;73595;53.084;6.696;2024-01-06T13:53:24;14.45;;;9.75;;
83632;SDS011;73595;53.084;6.696;2024-01-06T13:55:49;16.15;;;9.93;;
83632;SDS011;73595;53.084;6.696;2024-01-06T13:58:15;15.02;;;9.35;;
83632;SDS011;73595;53.084;6.696;2024-01-06T14:00:42;13.77;;;9.75;;
83632;SDS011;73595;53.084;6.696;2024-01-06T14:03:07;13.45;;;9.05;;
83632;SDS011;73595;53.084;6.696;2024-01-06T14:05:33;16.35;;;10.68;;
83632;SDS011;73595;53.084;6.696;2024-01-06T14:07:59;15.70;;;10.68;;
83632;SDS011;73595;53.084;6.696;2024-01-06T14:10:25;17.50;;;11.13;;
83632;SDS011;73595;53.084;6.696;2024-01-06T14:12:51;15.15;;;9.90;;
83632;SDS011;73595;53.084;6.696;2024-01-06T14:15:18;16.88;;;9.85;;
83632;SDS011;73595;53.084;6.696;2024-01-06T14:17:43;14.63;;;9.52;;
83632;SDS011;73595;53.084;6.696;2024-01-06T14:20:14;15.65;;;9.98;;
83632;SDS011;73595;53.084;6.696;2024-01-06T14:22:42;15.13;;;9.75;;
83632;SDS011;73595;53.084;6.696;2024-01-06T14:25:08;17.00;;;10.38;;
83632;SDS011;73595;53.084;6.696;2024-01-06T14:27:33;14.88;;;9.55;;
83632;SDS011;73595;53.084;6.696;2024-01-06T14:29:59;14.98;;;9.98;;
83632;SDS011;73595;53.084;6.696;2024-01-06T14:32:24;22.17;;;11.48;;
83632;SDS011;73595;53.084;6.696;2024-01-06T14:34:53;18.50;;;11.63;;
83632;SDS011;73595;53.084;6.696;2024-01-06T14:37:18;17.17;;;10.30;;
83632;SDS011;73595;53.084;6.696;2024-01-06T14:39:44;14.93;;;9.07;;
83632;SDS011;73595;53.084;6.696;2024-01-06T14:42:09;14.15;;;9.70;;
83632;SDS011;73595;53.084;6.696;2024-01-06T14:44:35;15.10;;;10.18;;
83632;SDS011;73595;53.084;6.696;2024-01-06T14:47:00;16.27;;;11.05;;